createdAt,value
2019-02-27T00:02:11.932Z,23.47
2019-02-27T00:04:39.329Z,22.33
2019-02-27T00:07:06.680Z,22.03
2019-02-27T00:09:34.095Z,26.10
2019-02-27T00:12:02.351Z,27.00
2019-02-27T00:17:57.957Z,23.73
2019-02-27T00:20:25.528Z,24.50
2019-02-27T00:22:53.009Z,25.60
2019-02-27T00:25:20.529Z,23.73
2019-02-27T00:27:49.167Z,25.57
2019-02-27T00:30:17.449Z,25.87
2019-02-27T00:32:44.972Z,24.10
2019-02-27T00:35:12.489Z,27.23
2019-02-27T00:37:39.969Z,25.90
2019-02-27T00:40:07.569Z,28.30
2019-02-27T00:42:34.890Z,21.93
2019-02-27T00:51:11.972Z,27.33
2019-02-27T00:58:03.494Z,23.37
2019-02-27T01:00:30.835Z,30.13
2019-02-27T01:19:09.126Z,25.20
2019-02-27T01:22:25.428Z,24.60
2019-02-27T01:37:03.267Z,27.10
2019-02-27T01:47:24.989Z,25.93
2019-02-27T01:56:59.894Z,26.63
2019-02-27T02:03:30.239Z,26.37
2019-02-27T02:06:34.314Z,24.60
2019-02-27T02:10:02.749Z,24.57
2019-02-27T02:13:38.574Z,25.33
2019-02-27T02:20:16.083Z,30.37
2019-02-27T02:22:58.199Z,27.10
2019-02-27T02:26:10.477Z,30.27
2019-02-27T02:29:10.559Z,26.40
2019-02-27T02:31:49.159Z,27.73
2019-02-27T02:35:14.832Z,25.13
2019-02-27T02:38:24.521Z,29.23
2019-02-27T02:41:19.014Z,24.73
2019-02-27T02:44:23.480Z,27.53
2019-02-27T02:47:44.710Z,25.93
2019-02-27T02:51:04.189Z,25.03
2019-02-27T02:54:24.637Z,25.27
2019-02-27T02:57:35.891Z,20.40
2019-02-27T03:00:21.457Z,26.27
2019-02-27T03:03:22.659Z,23.23
2019-02-27T03:06:17.590Z,27.00
2019-02-27T03:09:10.916Z,28.53
2019-02-27T03:12:10.746Z,25.90
2019-02-27T03:15:07.774Z,26.13
2019-02-27T03:18:01.049Z,25.63
2019-02-27T03:21:02.724Z,26.23
2019-02-27T03:24:11.126Z,28.20
2019-02-27T03:27:09.666Z,24.77
2019-02-27T03:30:05.331Z,26.47
2019-02-27T03:33:06.457Z,24.67
2019-02-27T03:36:03.448Z,28.87
2019-02-27T03:39:06.071Z,26.23
2019-02-27T03:41:58.413Z,24.60
2019-02-27T03:44:56.202Z,22.57
2019-02-27T03:47:56.944Z,26.97
2019-02-27T03:51:03.123Z,26.10
2019-02-27T03:54:03.505Z,25.23
2019-02-27T03:57:18.936Z,26.07
2019-02-27T04:00:04.882Z,26.27
2019-02-27T04:03:25.882Z,25.03
2019-02-27T04:06:20.159Z,21.97
2019-02-27T04:09:00.055Z,28.90
2019-02-27T04:11:27.962Z,28.80
2019-02-27T04:14:03.346Z,30.07
2019-02-27T04:16:29.410Z,24.57
2019-02-27T04:18:56.146Z,27.77
2019-02-27T04:21:26.102Z,24.73
2019-02-27T04:23:53.875Z,28.20
2019-02-27T04:26:21.235Z,22.03
2019-02-27T04:28:48.599Z,26.43
2019-02-27T04:31:15.954Z,24.80
2019-02-27T04:33:43.340Z,29.70
2019-02-27T04:36:12.826Z,27.80
2019-02-27T04:38:39.978Z,23.57
2019-02-27T04:41:07.309Z,25.47
2019-02-27T04:43:34.664Z,24.33
2019-02-27T04:46:01.985Z,26.73
2019-02-27T04:48:29.904Z,23.57
2019-02-27T04:50:57.987Z,23.33
2019-02-27T04:53:25.344Z,25.43
2019-02-27T04:55:52.668Z,28.07
2019-02-27T04:58:19.978Z,25.23
2019-02-27T05:00:47.354Z,25.83
2019-02-27T05:03:14.737Z,27.00
2019-02-27T05:05:42.124Z,24.70
2019-02-27T05:08:09.407Z,24.57
2019-02-27T05:10:38.214Z,23.17
2019-02-27T05:13:06.023Z,25.90
2019-02-27T05:15:33.399Z,25.83
2019-02-27T05:18:00.738Z,25.97
2019-02-27T05:20:28.103Z,26.07
2019-02-27T05:23:00.171Z,27.03
2019-02-27T05:25:24.979Z,25.83
2019-02-27T05:27:52.284Z,29.47
2019-02-27T05:30:19.679Z,35.87
2019-02-27T05:32:47.029Z,25.57
2019-02-27T05:35:14.466Z,24.10
2019-02-27T05:37:41.819Z,27.73
2019-02-27T05:40:09.771Z,26.73
2019-02-27T05:42:39.103Z,29.27
2019-02-27T05:45:09.895Z,25.20
2019-02-27T05:47:37.216Z,22.90
2019-02-27T05:50:05.755Z,30.23
2019-02-27T05:52:33.209Z,24.10
2019-02-27T05:55:00.586Z,27.00
2019-02-27T05:57:27.921Z,26.60
2019-02-27T05:59:55.364Z,24.93
2019-02-27T06:02:22.699Z,25.07
2019-02-27T06:04:50.060Z,31.93
2019-02-27T06:07:19.037Z,25.47
2019-02-27T06:09:48.932Z,26.17
2019-02-27T06:12:15.934Z,29.20
2019-02-27T06:14:43.294Z,32.67
2019-02-27T06:17:12.861Z,25.43
2019-02-27T06:19:40.291Z,27.53
2019-02-27T06:22:07.630Z,23.50
2019-02-27T06:24:34.999Z,23.67
2019-02-27T06:27:06.060Z,28.03
2019-02-27T06:29:31.624Z,23.50
2019-02-27T06:31:59.414Z,29.37
2019-02-27T06:34:26.767Z,25.87
2019-02-27T06:36:54.138Z,28.30
2019-02-27T06:39:21.484Z,28.37
2019-02-27T06:41:49.786Z,25.23
2019-02-27T06:44:19.119Z,21.00
2019-02-27T06:46:46.634Z,24.10
2019-02-27T06:49:17.260Z,25.33
2019-02-27T06:51:43.225Z,22.70
2019-02-27T06:54:10.580Z,21.00
2019-02-27T06:56:40.769Z,25.57
2019-02-27T06:59:08.082Z,23.50
2019-02-27T07:01:35.468Z,20.70
2019-02-27T07:04:04.819Z,20.27
2019-02-27T07:06:32.060Z,18.27
2019-02-27T07:08:59.865Z,21.20
2019-02-27T07:11:27.234Z,23.37
2019-02-27T07:13:54.586Z,21.97
2019-02-27T07:16:22.911Z,18.40
2019-02-27T07:18:51.059Z,20.40
2019-02-27T07:21:18.504Z,20.60
2019-02-27T07:23:47.903Z,19.37
2019-02-27T07:26:15.845Z,18.67
2019-02-27T07:28:44.100Z,19.10
2019-02-27T07:31:12.481Z,19.13
2019-02-27T07:33:40.661Z,17.47
2019-02-27T07:36:08.689Z,27.97
2019-02-27T07:38:36.038Z,21.17
2019-02-27T07:41:03.394Z,22.43
2019-02-27T07:43:30.729Z,20.83
2019-02-27T07:45:58.079Z,17.17
2019-02-27T07:48:25.414Z,19.60
2019-02-27T07:50:52.944Z,21.73
2019-02-27T07:53:20.284Z,20.00
2019-02-27T07:55:48.421Z,18.13
2019-02-27T07:58:15.834Z,22.47
2019-02-27T08:00:43.146Z,19.90
2019-02-27T08:03:12.986Z,18.67
2019-02-27T08:05:39.878Z,18.33
2019-02-27T08:08:07.299Z,18.20
2019-02-27T08:10:36.982Z,17.00
2019-02-27T08:13:04.348Z,20.93
2019-02-27T08:15:31.728Z,17.80
2019-02-27T08:17:59.223Z,17.53
2019-02-27T08:20:26.720Z,18.83
2019-02-27T08:22:54.244Z,17.27
2019-02-27T08:25:21.889Z,18.83
2019-02-27T08:27:49.375Z,18.53
2019-02-27T08:30:18.426Z,16.77
2019-02-27T08:32:46.110Z,16.67
2019-02-27T08:35:16.762Z,16.83
2019-02-27T08:37:44.313Z,18.23
2019-02-27T08:40:11.875Z,16.90
2019-02-27T08:42:40.699Z,15.63
2019-02-27T08:45:08.973Z,16.90
2019-02-27T08:47:36.499Z,19.03
2019-02-27T08:50:05.984Z,18.13
2019-02-27T08:52:34.160Z,17.10
2019-02-27T08:55:05.419Z,19.83
2019-02-27T08:57:30.854Z,21.70
2019-02-27T08:59:58.553Z,17.00
2019-02-27T09:02:29.207Z,17.60
2019-02-27T09:04:55.497Z,17.80
2019-02-27T09:10:44.980Z,17.90
2019-02-27T09:16:09.616Z,17.30
2019-02-27T09:18:37.162Z,19.50
2019-02-27T09:21:04.734Z,17.87
2019-02-27T09:23:32.399Z,18.93
2019-02-27T09:26:02.698Z,17.87
2019-02-27T09:28:29.998Z,19.73
2019-02-27T09:31:03.326Z,17.97
2019-02-27T09:33:29.461Z,20.83
2019-02-27T09:35:57.372Z,19.27
2019-02-27T09:38:25.032Z,18.13
2019-02-27T09:40:52.611Z,17.67
2019-02-27T09:43:20.131Z,21.60
2019-02-27T09:45:47.751Z,18.97
2019-02-27T09:48:15.371Z,20.83
2019-02-27T09:50:47.649Z,18.63
2019-02-27T09:53:14.059Z,21.70
2019-02-27T09:55:41.660Z,20.80
2019-02-27T09:58:11.291Z,19.67
2019-02-27T10:00:44.613Z,18.63
2019-02-27T10:03:12.273Z,18.87
2019-02-27T10:05:40.843Z,16.80
2019-02-27T10:08:08.971Z,19.47
2019-02-27T10:10:36.562Z,18.90
2019-02-27T10:13:04.212Z,19.17
2019-02-27T10:15:31.833Z,20.77
2019-02-27T10:17:59.410Z,21.00
2019-02-27T10:20:26.991Z,21.53
2019-02-27T10:22:54.631Z,22.60
2019-02-27T10:25:22.331Z,20.30
2019-02-27T10:27:50.031Z,19.27
2019-02-27T10:30:17.850Z,19.07
2019-02-27T10:32:45.471Z,23.20
2019-02-27T10:35:14.011Z,19.97
2019-02-27T10:37:41.623Z,19.10
2019-02-27T10:40:11.468Z,21.77
2019-02-27T10:42:40.710Z,21.73
2019-02-27T10:45:10.216Z,18.37
2019-02-27T10:47:39.925Z,19.10
2019-02-27T10:50:07.991Z,20.27
2019-02-27T10:52:35.551Z,19.63
2019-02-27T10:55:03.355Z,19.47
2019-02-27T10:57:32.230Z,22.93
2019-02-27T11:00:03.539Z,21.57
2019-02-27T11:02:31.231Z,19.33
2019-02-27T11:04:58.771Z,18.27
2019-02-27T11:07:26.332Z,19.47
2019-02-27T11:09:53.919Z,18.43
2019-02-27T11:12:21.586Z,17.07
2019-02-27T11:14:49.243Z,16.40
2019-02-27T11:17:16.954Z,15.57
2019-02-27T11:19:44.812Z,16.57
2019-02-27T11:23:06.732Z,19.90
2019-02-27T11:25:56.518Z,15.93
2019-02-27T11:28:31.124Z,14.63
2019-02-27T11:31:38.751Z,16.03
2019-02-27T11:34:13.231Z,16.93
2019-02-27T11:36:40.840Z,18.80
2019-02-27T11:39:08.872Z,14.90
2019-02-27T11:41:36.351Z,12.80
2019-02-27T11:44:05.072Z,12.50
2019-02-27T11:46:35.154Z,14.77
2019-02-27T11:49:03.166Z,4.77
2019-02-27T11:51:31.174Z,2.80
2019-02-27T11:53:59.171Z,2.40
2019-02-27T11:56:26.691Z,3.47
2019-02-27T11:58:57.789Z,3.07
2019-02-27T12:01:25.531Z,2.67
2019-02-27T12:03:53.051Z,3.03
2019-02-27T12:06:20.651Z,2.80
2019-02-27T12:08:48.734Z,3.60
2019-02-27T12:11:16.231Z,2.57
2019-02-27T12:13:43.695Z,5.20
2019-02-27T12:16:11.471Z,2.80
2019-02-27T12:19:08.651Z,2.43
2019-02-27T12:21:34.851Z,3.23
2019-02-27T12:35:56.870Z,3.30
2019-02-27T12:38:56.042Z,4.87
2019-02-27T12:43:14.373Z,4.03
2019-02-27T12:55:01.773Z,2.60
2019-02-27T13:02:46.228Z,2.90
2019-02-27T13:12:42.029Z,3.33
2019-02-27T13:15:12.277Z,4.83
2019-02-27T13:18:43.962Z,3.47
2019-02-27T13:21:37.532Z,3.40
2019-02-27T13:24:22.252Z,3.90
2019-02-27T13:30:41.370Z,4.97
2019-02-27T13:36:51.577Z,5.87
2019-02-27T13:43:05.603Z,3.90
2019-02-27T14:14:53.338Z,5.00
2019-02-27T14:18:21.950Z,4.40
2019-02-27T14:21:56.129Z,5.70
2019-02-27T14:32:38.252Z,5.20
2019-02-27T14:36:01.703Z,7.20
2019-02-27T14:39:07.837Z,4.87
2019-02-27T15:02:33.798Z,4.33
2019-02-27T15:05:06.213Z,4.50
2019-02-27T15:07:30.505Z,3.47
2019-02-27T15:09:57.938Z,4.33
2019-02-27T15:12:25.325Z,3.57
2019-02-27T15:14:52.764Z,4.47
2019-02-27T15:17:20.450Z,6.00
2019-02-27T15:19:48.744Z,5.23
2019-02-27T15:22:20.227Z,4.47
2019-02-27T15:24:45.483Z,5.03
2019-02-27T15:27:12.866Z,4.43
2019-02-27T15:29:40.350Z,4.63
2019-02-27T15:32:07.808Z,3.77
2019-02-27T15:34:35.238Z,4.07
2019-02-27T15:37:04.131Z,5.43
2019-02-27T15:39:31.983Z,5.10
2019-02-27T15:41:59.374Z,4.67
2019-02-27T15:44:26.823Z,3.83
2019-02-27T15:46:56.600Z,4.97
2019-02-27T15:49:23.553Z,9.03
2019-02-27T15:51:51.029Z,4.57
2019-02-27T15:54:23.981Z,4.43
2019-02-27T15:56:47.773Z,4.43
2019-02-27T15:59:15.713Z,5.33
2019-02-27T16:01:43.118Z,8.20
2019-02-27T16:04:10.610Z,4.70
2019-02-27T16:06:39.821Z,6.23
2019-02-27T16:09:08.883Z,4.27
2019-02-27T16:11:36.298Z,5.70
2019-02-27T16:14:09.259Z,5.00
2019-02-27T16:16:33.283Z,4.60
2019-02-27T16:19:00.855Z,5.77
2019-02-27T16:21:28.375Z,4.57
2019-02-27T16:23:56.232Z,5.37
2019-02-27T16:26:27.011Z,5.27
2019-02-27T16:28:53.634Z,5.10
2019-02-27T16:31:21.178Z,4.70
2019-02-27T16:33:48.913Z,6.17
2019-02-27T16:36:16.544Z,5.57
2019-02-27T16:38:44.059Z,5.20
2019-02-27T16:41:11.933Z,7.27
2019-02-27T16:43:39.499Z,7.03
2019-02-27T16:46:08.529Z,9.00
2019-02-27T16:48:36.529Z,5.80
2019-02-27T16:51:04.332Z,5.90
2019-02-27T16:53:31.923Z,8.03
2019-02-27T16:55:59.768Z,8.67
2019-02-27T16:58:32.515Z,7.47
2019-02-27T17:00:57.104Z,7.17
2019-02-27T17:03:24.738Z,6.50
2019-02-27T17:05:52.438Z,7.37
2019-02-27T17:08:20.203Z,6.80
2019-02-27T17:10:51.666Z,7.77
2019-02-27T17:13:17.710Z,6.70
2019-02-27T17:15:45.435Z,12.93
2019-02-27T17:18:13.275Z,13.73
2019-02-27T17:20:45.878Z,15.57
2019-02-27T17:23:11.078Z,54.47
2019-02-27T17:25:38.784Z,60.07
2019-02-27T17:28:06.335Z,29.63
2019-02-27T17:30:37.765Z,22.33
2019-02-27T17:33:04.098Z,26.43
2019-02-27T17:35:32.979Z,29.77
2019-02-27T17:38:00.580Z,19.53
2019-02-27T17:40:29.209Z,13.80
2019-02-27T17:42:57.418Z,33.33
2019-02-27T17:45:28.269Z,13.87
2019-02-27T17:47:56.091Z,16.57
2019-02-27T17:50:31.694Z,27.13
2019-02-27T17:52:58.600Z,26.37
2019-02-27T17:55:26.569Z,21.90
2019-02-27T17:57:58.026Z,18.23
2019-02-27T18:00:34.479Z,18.33
2019-02-27T18:03:05.024Z,41.43
2019-02-27T18:05:35.169Z,28.67
2019-02-27T18:08:04.158Z,10.73
2019-02-27T18:10:37.076Z,39.10
2019-02-27T18:13:02.119Z,21.73
2019-02-27T18:15:30.139Z,18.57
2019-02-27T18:17:58.169Z,11.40
2019-02-27T18:20:26.029Z,11.23
2019-02-27T18:22:54.001Z,12.60
2019-02-27T18:25:21.996Z,16.40
2019-02-27T18:27:49.846Z,12.07
2019-02-27T18:30:18.839Z,15.27
2019-02-27T18:33:03.547Z,24.80
2019-02-27T18:36:05.662Z,28.23
2019-02-27T18:38:32.932Z,22.23
2019-02-27T18:41:01.048Z,22.10
2019-02-27T18:43:30.105Z,11.30
2019-02-27T18:45:58.729Z,16.80
2019-02-27T18:48:26.658Z,13.50
2019-02-27T18:50:55.918Z,13.63
2019-02-27T18:53:24.309Z,14.57
2019-02-27T18:55:52.238Z,11.10
2019-02-27T18:58:20.893Z,11.47
2019-02-27T19:00:49.419Z,12.07
2019-02-27T19:03:17.258Z,11.23
2019-02-27T19:05:45.134Z,14.10
2019-02-27T19:08:13.061Z,11.90
2019-02-27T19:10:42.477Z,10.23
2019-02-27T19:13:10.775Z,12.07
2019-02-27T19:15:39.080Z,12.47
2019-02-27T19:18:07.389Z,12.47
2019-02-27T19:20:35.600Z,12.40
2019-02-27T19:23:03.649Z,11.47
2019-02-27T19:25:34.620Z,13.63
2019-02-27T19:28:04.734Z,11.43
2019-02-27T19:30:34.677Z,15.53
2019-02-27T19:33:03.911Z,9.97
2019-02-27T19:35:32.840Z,11.07
2019-02-27T19:38:01.142Z,10.80
2019-02-27T19:40:30.563Z,10.77
2019-02-27T19:43:02.988Z,12.00
2019-02-27T19:45:30.895Z,10.33
2019-02-27T19:48:00.005Z,10.00
2019-02-27T19:50:28.019Z,11.90
2019-02-27T19:52:56.014Z,11.73
2019-02-27T19:55:27.626Z,13.73
2019-02-27T19:57:55.689Z,13.47
2019-02-27T20:00:25.063Z,11.17
2019-02-27T20:02:56.996Z,10.47
2019-02-27T20:05:24.043Z,10.97
2019-02-27T20:07:52.241Z,12.73
2019-02-27T20:10:21.785Z,14.80
2019-02-27T20:12:52.979Z,15.83
2019-02-27T20:15:19.930Z,15.03
2019-02-27T20:17:48.053Z,14.10
2019-02-27T20:20:17.522Z,16.00
2019-02-27T20:22:46.582Z,13.57
2019-02-27T20:25:14.549Z,13.73
2019-02-27T20:27:43.075Z,12.20
2019-02-27T20:30:14.350Z,14.37
2019-02-27T20:32:43.109Z,11.90
2019-02-27T20:35:11.428Z,16.20
2019-02-27T20:37:40.263Z,14.37
2019-02-27T20:40:09.372Z,16.77
2019-02-27T20:42:37.358Z,14.13
2019-02-27T20:45:08.635Z,14.30
2019-02-27T20:47:37.274Z,12.57
2019-02-27T20:50:09.624Z,12.67
2019-02-27T20:52:42.604Z,12.57
2019-02-27T20:55:10.904Z,13.37
2019-02-27T20:57:42.265Z,11.53
2019-02-27T21:00:12.718Z,11.80
2019-02-27T21:02:40.669Z,12.10
2019-02-27T21:05:10.563Z,15.00
2019-02-27T21:07:38.493Z,11.30
2019-02-27T21:10:10.357Z,12.43
2019-02-27T21:12:40.829Z,14.90
2019-02-27T21:15:08.738Z,12.40
2019-02-27T21:17:38.928Z,13.73
2019-02-27T21:20:11.917Z,12.23
2019-02-27T21:22:40.116Z,11.87
2019-02-27T21:25:08.639Z,10.63
2019-02-27T21:27:36.394Z,15.07
2019-02-27T21:30:18.055Z,13.03
2019-02-27T21:32:41.203Z,11.50
2019-02-27T21:35:11.849Z,12.30
2019-02-27T21:37:44.545Z,13.67
2019-02-27T21:40:10.758Z,13.13
2019-02-27T21:42:38.369Z,12.47
2019-02-27T21:45:08.268Z,12.77
2019-02-27T21:47:38.340Z,10.90
2019-02-27T21:50:07.397Z,13.10
2019-02-27T21:52:35.098Z,14.93
2019-02-27T21:55:02.669Z,12.50
2019-02-27T21:57:30.184Z,15.97
2019-02-27T22:00:25.615Z,12.57
2019-02-27T22:03:03.901Z,14.33
2019-02-27T22:10:28.197Z,15.70
2019-02-27T22:12:53.065Z,14.07
2019-02-27T22:15:23.215Z,13.93
2019-02-27T22:17:50.738Z,14.90
2019-02-27T22:20:18.349Z,14.87
2019-02-27T22:22:45.728Z,15.83
2019-02-27T22:25:13.298Z,17.00
2019-02-27T22:27:43.278Z,14.80
2019-02-27T22:30:12.519Z,13.27
2019-02-27T22:32:39.908Z,17.03
2019-02-27T22:35:07.579Z,16.63
2019-02-27T22:37:35.009Z,15.63
2019-02-27T22:40:06.583Z,14.47
2019-02-27T22:42:31.963Z,13.43
2019-02-27T22:45:00.585Z,18.10
2019-02-27T22:47:28.824Z,15.97
2019-02-27T22:49:56.348Z,15.30
2019-02-27T22:52:23.848Z,20.53
2019-02-27T22:54:51.644Z,19.33
2019-02-27T22:57:19.050Z,21.53
2019-02-27T22:59:46.604Z,17.90
2019-02-27T23:02:14.174Z,19.40
2019-02-27T23:04:41.752Z,18.73
2019-02-27T23:07:09.483Z,17.87
2019-02-27T23:09:37.054Z,16.27
2019-02-27T23:12:04.684Z,16.77
2019-02-27T23:14:33.134Z,19.43
2019-02-27T23:17:01.295Z,14.73
2019-02-27T23:19:28.928Z,18.60
2019-02-27T23:21:57.575Z,18.87
2019-02-27T23:24:25.772Z,20.80
2019-02-27T23:26:54.922Z,20.83
2019-02-27T23:29:22.778Z,21.10
2019-02-27T23:31:50.313Z,18.17
2019-02-27T23:34:17.768Z,17.97
2019-02-27T23:36:45.281Z,20.70
2019-02-27T23:39:12.728Z,24.67
2019-02-27T23:41:40.283Z,20.40
2019-02-27T23:44:07.712Z,20.03
2019-02-27T23:46:35.193Z,18.50
2019-02-27T23:49:02.608Z,23.80
2019-02-27T23:51:30.143Z,21.57
2019-02-27T23:53:58.636Z,18.67
2019-02-27T23:56:26.943Z,23.23
2019-02-27T23:58:54.481Z,22.03
